Aérodrome :
LOGIN :

S'inscrire | Disclaimer

   EN    FR    IT 

 










Légende :    VFR   VFR Marginal   IFR   IFR Intensif   IFR Très Intensif
Visi : 
Plafond : 
>= 8 km
>= 3000ft
5 à 8 km
1000 à 3000 ft
1500m à 5 km
500 à 1000 ft
800 à 1500m
200 à 500 ft
< 800m
< 200 ft
Symboles :   Orages  Brouillard  Fortes neiges  Fortes précipitations  Vent > 20 kt
SIGMETs :   Divers  Orages  Givrage  Turbulence  Onde Orograph.  Cendres Volcan.







- Altitude de l'aérodrome : 39 ft
- Code IATA : SUF


LICA - Lamezia Terme

DERNIER METAR :
  • 210750Z 27016KT 9999 SCT025 18/12 Q1014

METARs EXPIRÉS :
  • 210650Z 27019KT 9999 SCT025 17/11 Q1013
  • 210550Z 26017KT 9999 SCT025 17/11 Q1013

TAF TAF LICA
Valide du 21 à 06h jusqu'au 22 à 06h UTC


210500Z 2106/2206 27013KT 9999 SCT030
BECMG 2116/2118 VRB05KT
TEMPO 2118/2203 SHRA
Pas de NOTAMs connus pour ce terrain.
1 SIGMET publié pour la FIR Roma (LIRR) :
 
Orages noyés dans la masse
LIRR SIGMET 3 VALID 210730/210830 LIIB
LIRR ROMA FIR EMBD TS FCST WI N4119 E00820 - N4120 E00947 - N4155 E00946 - N4154 E01031 - N3754 E01030 - N3900 E00801 - N4101 E00758 - N4119 E00820 TOP FL300 MOV E WKN=



MET'MAP, la Météo Aéronautique d'un coup d'oeil ! - Copyright ORBIFLY Décembre 2007 - Disclaimer

ORBIFLY MET'MAP TEAM :

Programmation & Développement : Alexandra Zaïnal
Conception & Développement : Baudouin d'Aumeries
Co-Programmation & Développement : Marc-Olivier Méhu
Soutien technique & logistique : Manuel Goepfert

Contact : metmap@orbifly.com




SOURCES & CREDITS :

   NOAA